Time;durP1;ratioP1;P1;durP2;ratioP2;P2;SDS_P1;SDS_P2;PMS_P1;PMS_P2;Temp;Humidity;BMP_temperature;BMP_pressure;BME280_temperature;BME280_humidity;BME280_pressure;Samples;Min_cycle;Max_cycle;Signal;HPM_P1;HPM_P2
2023/05/04 17:45:44;;;;;;;256.97;106.50;;;;;;;14.15;100.00;148634.66;4895898;27;6539527;-53
2023/05/04 17:48:25;;;;;;;183.80;76.67;;;;;;;14.21;100.00;148649.81;5106458;28;20223;-52
2023/05/04 17:51:22;;;;;;;135.73;60.70;;;;;;;14.27;100.00;148664.94;5102287;28;20222;-52
2023/05/04 17:54:14;;;;;;;80.33;41.70;;;;;;;14.34;100.00;148682.56;5106151;28;20287;-52
2023/05/04 17:57:00;;;;;;;53.77;31.70;;;;;;;14.31;100.00;148675.03;5105726;28;20726;-51
2023/05/04 17:59:42;;;;;;;66.87;37.57;;;;;;;14.44;100.00;148707.88;5106305;28;20218;-52
2023/05/04 18:02:22;;;;;;;73.70;39.83;;;;;;;14.53;100.00;148730.56;5085950;28;20231;-52
2023/05/04 18:05:31;;;;;;;63.00;34.80;;;;;;;14.61;100.00;148749.47;5086092;28;20306;-52
2023/05/04 18:07:59;;;;;;;66.30;37.13;;;;;;;14.65;100.00;148758.31;5082162;28;20200;-52
2023/05/04 18:10:34;;;;;;;70.77;39.93;;;;;;;14.71;100.00;148773.44;5092832;28;20199;-52
2023/05/04 18:13:06;;;;;;;60.73;35.40;;;;;;;14.79;100.00;148793.59;5098213;28;20230;-53
2023/05/04 18:15:42;;;;;;;51.77;30.90;;;;;;;14.83;100.00;148803.72;5094379;28;20195;-53
2023/05/04 18:18:17;;;;;;;36.20;24.60;;;;;;;14.75;100.00;148784.81;5095060;28;20207;-51
2023/05/04 18:20:56;;;;;;;29.23;22.13;;;;;;;14.66;100.00;148760.84;5100350;28;20191;-52
2023/05/04 18:23:27;;;;;;;38.23;23.30;;;;;;;14.68;100.00;148765.84;5097061;28;20554;-54
2023/05/04 18:26:06;;;;;;;35.57;22.67;;;;;;;14.66;100.00;148762.13;5095911;28;20214;-53
2023/05/04 18:28:34;;;;;;;32.17;23.10;;;;;;;14.74;100.00;148781.03;5093826;28;20215;-53
2023/05/04 18:31:18;;;;;;;34.83;24.07;;;;;;;14.78;100.00;148792.38;5094971;28;20608;-53
2023/05/04 18:34:09;;;;;;;33.10;22.97;;;;;;;14.84;100.00;148806.25;5095731;28;20289;-53
2023/05/04 18:39:35;;;;;;;34.57;22.97;;;;;;;14.76;100.00;148786.06;5082340;28;20235;-52
2023/05/04 18:42:16;;;;;;;31.73;22.93;;;;;;;14.75;100.00;148784.81;5085011;28;20510;-52
2023/05/04 18:48:11;;;;;;;33.80;22.80;;;;;;;14.77;100.00;148789.88;5083001;28;20227;-51
2023/05/04 18:51:12;;;;;;;32.93;22.63;;;;;;;14.79;100.00;148794.88;5084392;28;20215;-51
2023/05/04 18:54:01;;;;;;;32.43;23.20;;;;;;;14.86;100.00;148812.56;5084839;28;20589;-52
2023/05/04 18:56:57;;;;;;;36.03;23.23;;;;;;;14.82;100.00;148802.44;5073751;28;20227;-53
2023/05/04 18:59:28;;;;;;;34.87;23.90;;;;;;;14.76;100.00;148786.06;5068536;28;20613;-53
2023/05/04 19:02:32;;;;;;;38.10;25.47;;;;;;;14.75;100.00;148783.53;5071760;28;20554;-53
2023/05/04 19:08:17;;;;;;;39.90;27.10;;;;;;;14.79;100.00;148793.59;5071745;28;20273;-52
2023/05/04 19:11:05;;;;;;;41.70;26.97;;;;;;;14.78;100.00;148792.38;5064269;28;20223;-53
2023/05/04 19:14:04;;;;;;;44.23;28.47;;;;;;;14.73;100.00;148779.75;5070490;28;20311;-52
2023/05/04 19:20:01;;;;;;;42.40;27.60;;;;;;;14.70;100.00;148770.91;5069924;28;20280;-53
2023/05/04 19:22:34;;;;;;;38.10;26.27;;;;;;;14.73;100.00;148779.75;5070796;28;20433;-52
2023/05/04 19:25:13;;;;;;;37.53;26.17;;;;;;;14.75;100.00;148784.81;5081476;28;20752;-52
2023/05/04 19:27:50;;;;;;;36.03;25.77;;;;;;;14.77;100.00;148789.88;5089080;28;20225;-52
2023/05/04 19:30:33;;;;;;;38.30;26.17;;;;;;;14.71;100.00;148773.44;5090710;28;20225;-52
2023/05/04 19:33:19;;;;;;;39.87;26.87;;;;;;;14.71;100.00;148773.44;5091321;28;20262;-51
2023/05/04 19:36:07;;;;;;;39.43;25.80;;;;;;;14.77;100.00;148788.59;5070264;28;20220;-53
2023/05/04 19:38:44;;;;;;;38.20;25.80;;;;;;;14.78;100.00;148792.38;5070198;28;20224;-52
2023/05/04 19:41:38;;;;;;;43.07;26.10;;;;;;;14.78;100.00;148792.38;5069512;28;20303;-53
2023/05/04 19:44:14;;;;;;;39.40;26.60;;;;;;;14.75;100.00;148784.81;5070420;28;20232;-52
2023/05/04 19:46:50;;;;;;;34.20;24.30;;;;;;;14.84;100.00;148806.25;5070333;28;20715;-50
2023/05/04 19:49:20;;;;;;;34.43;24.97;;;;;;;14.81;100.00;148798.66;5070542;28;20224;-52
2023/05/04 19:52:03;;;;;;;37.03;24.63;;;;;;;14.86;100.00;148811.31;5070089;28;20227;-52
2023/05/04 19:54:43;;;;;;;39.53;26.47;;;;;;;14.86;100.00;148811.31;5069609;28;20216;-53
2023/05/04 19:57:19;;;;;;;35.40;25.13;;;;;;;14.82;100.00;148801.19;5068658;28;20220;-53
2023/05/04 19:59:56;;;;;;;42.67;26.73;;;;;;;14.81;100.00;148798.66;5069367;28;20223;-52
2023/05/04 20:02:33;;;;;;;37.83;26.33;;;;;;;14.84;100.00;148806.25;5070612;28;20249;-52
2023/05/04 20:05:15;;;;;;;37.13;25.80;;;;;;;14.83;100.00;148803.72;5069993;28;20234;-50
2023/05/04 20:07:47;;;;;;;37.50;25.07;;;;;;;14.64;100.00;148757.06;5068361;28;20783;-52
2023/05/04 20:10:19;;;;;;;39.43;26.60;;;;;;;14.78;100.00;148792.38;5070037;28;20293;-51
2023/05/04 20:12:51;;;;;;;38.97;23.87;;;;;;;14.84;100.00;148806.25;5069519;28;20223;-52
2023/05/04 20:15:37;;;;;;;35.67;25.67;;;;;;;14.81;100.00;148798.66;5070018;28;20307;-53
2023/05/04 20:18:11;;;;;;;38.53;25.60;;;;;;;14.81;100.00;148798.66;5070709;28;20224;-53
2023/05/04 20:21:15;;;;;;;39.27;24.77;;;;;;;14.87;100.00;148813.81;5090508;28;20198;-51
2023/05/04 20:24:04;;;;;;;32.17;23.50;;;;;;;14.85;100.00;148808.78;5087919;28;20209;-54
2023/05/04 20:26:37;;;;;;;34.87;23.93;;;;;;;14.88;100.00;148817.63;5090895;28;20751;-53
2023/05/04 20:32:21;;;;;;;74.63;42.27;;;;;;;14.93;100.00;148827.69;5070233;28;20241;-51
2023/05/04 20:35:38;;;;;;;;;;;;;;;;;;;;;
2023/05/04 20:41:51;;;;;;;51.57;33.43;;;;;;;14.96;100.00;148835.25;5068708;28;20569;-53
2023/05/04 20:45:08;;;;;;;;;;;;;;;;;;;;;
2023/05/04 20:57:26;;;;;;;30.27;22.40;;;;;;;15.01;100.00;148849.13;5066930;28;20203;-53
2023/05/04 21:00:15;;;;;;;31.37;22.03;;;;;;;15.08;100.00;148865.53;5068153;28;20196;-53
2023/05/04 21:12:12;;;;;;;31.30;21.90;;;;;;;15.08;100.00;148866.81;5068461;28;20204;-52
2023/05/04 21:15:23;;;;;;;29.87;21.27;;;;;;;15.12;100.00;148876.88;5069467;28;20583;-51
2023/05/04 21:17:55;;;;;;;27.53;20.67;;;;;;;15.13;100.00;148879.41;5065541;28;20203;-52
2023/05/04 21:23:14;;;;;;;31.60;22.63;;;;;;;15.09;100.00;148869.34;5068278;28;20191;-53
2023/05/04 21:26:12;;;;;;;29.00;21.13;;;;;;;15.07;100.00;148864.28;5069278;28;20253;-52
2023/05/04 21:29:06;;;;;;;30.77;23.37;;;;;;;15.17;100.00;148888.25;5068889;28;20203;-52
2023/05/04 21:32:15;;;;;;;28.00;21.27;;;;;;;15.05;100.00;148859.22;5069132;28;20222;-55
2023/05/04 21:35:06;;;;;;;36.73;25.60;;;;;;;15.03;100.00;148854.16;5068197;28;20637;-53
2023/05/04 21:38:08;;;;;;;43.10;26.83;;;;;;;15.00;100.00;148845.38;5066590;28;20455;-52
2023/05/04 21:44:06;;;;;;;44.37;30.53;;;;;;;15.04;100.00;148856.69;5066597;28;20267;-52
2023/05/04 21:47:02;;;;;;;43.20;28.73;;;;;;;15.02;100.00;148851.66;5069356;28;20220;-52
2023/05/04 21:50:17;;;;;;;38.33;26.50;;;;;;;14.87;100.00;148813.81;5068393;28;20196;-52
2023/05/04 21:53:31;;;;;;;33.40;23.23;;;;;;;14.69;100.00;148768.38;5066816;28;20715;-52
2023/05/04 21:56:32;;;;;;;30.33;21.77;;;;;;;14.62;100.00;148752.00;5062792;28;20231;-53
2023/05/04 22:02:40;;;;;;;30.67;20.30;;;;;;;14.60;100.00;148745.69;5067598;28;20199;-54
2023/05/04 22:05:39;;;;;;;30.43;20.40;;;;;;;14.71;100.00;148773.44;5061168;28;20227;-56
2023/05/04 22:08:43;;;;;;;28.67;19.43;;;;;;;14.73;100.00;148778.50;5033938;28;20204;-52
2023/05/04 22:14:39;;;;;;;29.67;20.53;;;;;;;14.83;100.00;148803.72;5066852;28;20290;-55
2023/05/04 22:17:32;;;;;;;28.13;19.03;;;;;;;14.78;100.00;148791.13;5064413;28;20587;-54
2023/05/04 22:20:37;;;;;;;28.23;19.23;;;;;;;14.76;100.00;148787.34;5064967;28;20193;-54
2023/05/04 22:23:35;;;;;;;27.63;18.50;;;;;;;14.74;100.00;148782.28;5067214;28;20203;-51
2023/05/04 22:29:46;;;;;;;24.77;18.93;;;;;;;14.58;100.00;148740.63;5066944;28;20700;-52
2023/05/04 22:32:36;;;;;;;25.43;18.47;;;;;;;14.57;100.00;148739.38;5070869;28;20202;-52
2023/05/04 22:38:34;;;;;;;26.57;18.80;;;;;;;14.45;100.00;148710.38;5072022;28;20211;-52
2023/05/04 22:41:04;;;;;;;23.33;17.27;;;;;;;14.46;100.00;148712.88;5072542;28;20695;-53
2023/05/04 22:47:03;;;;;;;23.73;17.40;;;;;;;14.41;100.00;148700.31;5070480;28;20306;-51
2023/05/04 22:52:59;;;;;;;22.43;15.87;;;;;;;14.41;100.00;148700.31;5068412;28;20290;-52
2023/05/04 22:56:05;;;;;;;17.77;14.70;;;;;;;14.38;100.00;148692.69;5071019;28;20194;-52
2023/05/04 23:02:22;;;;;;;23.90;16.50;;;;;;;14.31;100.00;148675.03;5069785;28;20253;-52
2023/05/04 23:17:29;;;;;;;27.60;18.77;;;;;;;14.29;100.00;148668.72;5071152;28;20710;-53
2023/05/04 23:20:18;;;;;;;28.60;19.07;;;;;;;14.37;100.00;148688.88;5067386;28;20212;-53
2023/05/04 23:29:40;;;;;;;26.33;18.70;;;;;;;14.26;100.00;148662.41;5070598;28;20687;-52
2023/05/04 23:35:40;;;;;;;28.10;19.03;;;;;;;14.25;100.00;148658.63;5069605;28;20238;-52
2023/05/04 23:38:21;;;;;;;26.93;18.27;;;;;;;14.21;100.00;148648.56;5070595;28;20231;-50
2023/05/04 23:44:29;;;;;;;22.67;17.53;;;;;;;14.26;100.00;148662.41;5066362;28;20238;-50
2023/05/04 23:47:33;;;;;;;24.53;18.00;;;;;;;14.26;100.00;148661.16;5069331;28;20602;-53
2023/05/04 23:50:29;;;;;;;20.97;16.40;;;;;;;14.29;100.00;148669.97;5071183;28;20286;-53
2023/05/04 23:53:22;;;;;;;22.10;16.67;;;;;;;14.31;100.00;148673.78;5071132;28;20200;-52
2023/05/04 23:56:38;;;;;;;;;;;;;;;;;;;;;
2023/05/04 23:59:34;;;;;;;20.27;16.17;;;;;;;14.23;100.00;148654.84;5069729;28;20204;-50
